sensor_id;sensor_type;location;lat;lon;timestamp;temperature;humidity
41630;DHT22;27322;49.488;8.480;2022-09-09T00:04:30;18.60;99.90
41630;DHT22;27322;49.488;8.480;2022-09-09T00:07:19;18.60;99.90
41630;DHT22;27322;49.488;8.480;2022-09-09T00:12:40;18.60;99.90
41630;DHT22;27322;49.488;8.480;2022-09-09T00:15:12;18.60;99.90
41630;DHT22;27322;49.488;8.480;2022-09-09T00:17:48;18.60;99.90
41630;DHT22;27322;49.488;8.480;2022-09-09T00:28:26;18.70;99.90
41630;DHT22;27322;49.488;8.480;2022-09-09T00:30:52;18.60;99.90
41630;DHT22;27322;49.488;8.480;2022-09-09T00:33:30;18.70;99.90
41630;DHT22;27322;49.488;8.480;2022-09-09T00:35:57;18.70;99.90
41630;DHT22;27322;49.488;8.480;2022-09-09T00:41:21;18.70;99.90
41630;DHT22;27322;49.488;8.480;2022-09-09T00:43:57;18.70;99.90
41630;DHT22;27322;49.488;8.480;2022-09-09T00:52:30;18.70;99.90
41630;DHT22;27322;49.488;8.480;2022-09-09T00:57:40;18.70;99.90
41630;DHT22;27322;49.488;8.480;2022-09-09T01:08:02;18.50;99.90
41630;DHT22;27322;49.488;8.480;2022-09-09T01:13:29;18.50;99.90
41630;DHT22;27322;49.488;8.480;2022-09-09T01:15:57;18.50;99.90
41630;DHT22;27322;49.488;8.480;2022-09-09T01:18:29;18.50;99.90
41630;DHT22;27322;49.488;8.480;2022-09-09T01:26:42;18.60;99.90
41630;DHT22;27322;49.488;8.480;2022-09-09T01:29:09;18.50;99.90
41630;DHT22;27322;49.488;8.480;2022-09-09T01:31:40;18.60;99.90
41630;DHT22;27322;49.488;8.480;2022-09-09T01:34:14;18.60;99.90
41630;DHT22;27322;49.488;8.480;2022-09-09T01:37:00;18.60;99.90
41630;DHT22;27322;49.488;8.480;2022-09-09T01:39:28;18.60;99.90
41630;DHT22;27322;49.488;8.480;2022-09-09T01:41:55;18.60;99.90
41630;DHT22;27322;49.488;8.480;2022-09-09T01:44:21;18.50;99.90
41630;DHT22;27322;49.488;8.480;2022-09-09T01:46:47;18.50;99.90
41630;DHT22;27322;49.488;8.480;2022-09-09T01:49:13;18.50;99.90
41630;DHT22;27322;49.488;8.480;2022-09-09T01:51:40;18.60;99.90
41630;DHT22;27322;49.488;8.480;2022-09-09T01:54:07;18.60;99.90
41630;DHT22;27322;49.488;8.480;2022-09-09T02:02:18;18.60;99.90
41630;DHT22;27322;49.488;8.480;2022-09-09T02:04:49;18.60;99.90
41630;DHT22;27322;49.488;8.480;2022-09-09T02:09:58;18.60;99.90
41630;DHT22;27322;49.488;8.480;2022-09-09T02:12:27;18.60;99.90
41630;DHT22;27322;49.488;8.480;2022-09-09T02:15:03;18.60;99.90
41630;DHT22;27322;49.488;8.480;2022-09-09T02:17:34;18.60;99.90
41630;DHT22;27322;49.488;8.480;2022-09-09T02:20:13;18.60;99.90
41630;DHT22;27322;49.488;8.480;2022-09-09T02:22:42;18.60;99.90
41630;DHT22;27322;49.488;8.480;2022-09-09T02:25:11;18.50;99.90
41630;DHT22;27322;49.488;8.480;2022-09-09T02:27:40;18.50;99.90
41630;DHT22;27322;49.488;8.480;2022-09-09T02:30:06;18.50;99.90
41630;DHT22;27322;49.488;8.480;2022-09-09T02:32:34;18.50;99.90
41630;DHT22;27322;49.488;8.480;2022-09-09T02:35:08;18.50;99.90
41630;DHT22;27322;49.488;8.480;2022-09-09T02:37:39;18.40;99.90
41630;DHT22;27322;49.488;8.480;2022-09-09T02:40:06;18.50;99.90
41630;DHT22;27322;49.488;8.480;2022-09-09T02:42:48;18.50;99.90
41630;DHT22;27322;49.488;8.480;2022-09-09T02:45:18;18.50;99.90
41630;DHT22;27322;49.488;8.480;2022-09-09T02:50:35;18.50;99.90
41630;DHT22;27322;49.488;8.480;2022-09-09T02:58:04;18.40;99.90
41630;DHT22;27322;49.488;8.480;2022-09-09T03:00:31;18.40;99.90
41630;DHT22;27322;49.488;8.480;2022-09-09T03:02:57;18.30;99.90
41630;DHT22;27322;49.488;8.480;2022-09-09T03:05:23;18.30;99.90
41630;DHT22;27322;49.488;8.480;2022-09-09T03:07:49;18.30;99.90
41630;DHT22;27322;49.488;8.480;2022-09-09T03:10:16;18.30;99.90
41630;DHT22;27322;49.488;8.480;2022-09-09T03:12:43;18.30;99.90
41630;DHT22;27322;49.488;8.480;2022-09-09T03:15:09;18.20;99.90
41630;DHT22;27322;49.488;8.480;2022-09-09T03:17:35;18.20;99.90
41630;DHT22;27322;49.488;8.480;2022-09-09T03:20:05;18.20;99.90
41630;DHT22;27322;49.488;8.480;2022-09-09T03:22:31;18.20;99.90
41630;DHT22;27322;49.488;8.480;2022-09-09T03:24:57;18.20;99.90
41630;DHT22;27322;49.488;8.480;2022-09-09T03:27:23;18.20;99.90
41630;DHT22;27322;49.488;8.480;2022-09-09T03:29:49;18.10;99.90
41630;DHT22;27322;49.488;8.480;2022-09-09T03:32:16;18.10;99.90
41630;DHT22;27322;49.488;8.480;2022-09-09T03:34:43;18.10;99.90
41630;DHT22;27322;49.488;8.480;2022-09-09T03:37:09;18.00;99.90
41630;DHT22;27322;49.488;8.480;2022-09-09T03:39:34;18.00;99.90
41630;DHT22;27322;49.488;8.480;2022-09-09T03:42:00;18.00;99.90
41630;DHT22;27322;49.488;8.480;2022-09-09T03:44:29;18.10;99.90
41630;DHT22;27322;49.488;8.480;2022-09-09T03:46:55;18.00;99.90
41630;DHT22;27322;49.488;8.480;2022-09-09T03:49:21;18.00;99.90
41630;DHT22;27322;49.488;8.480;2022-09-09T03:51:47;18.00;99.90
41630;DHT22;27322;49.488;8.480;2022-09-09T03:54:13;18.00;99.90
41630;DHT22;27322;49.488;8.480;2022-09-09T03:56:39;18.00;99.90
41630;DHT22;27322;49.488;8.480;2022-09-09T03:59:07;18.00;99.90
41630;DHT22;27322;49.488;8.480;2022-09-09T04:01:34;18.00;99.90
41630;DHT22;27322;49.488;8.480;2022-09-09T04:03:59;18.00;99.90
41630;DHT22;27322;49.488;8.480;2022-09-09T04:06:27;18.00;99.90
41630;DHT22;27322;49.488;8.480;2022-09-09T04:08:53;17.90;99.90
41630;DHT22;27322;49.488;8.480;2022-09-09T04:11:19;17.90;99.90
41630;DHT22;27322;49.488;8.480;2022-09-09T04:13:45;17.90;99.90
41630;DHT22;27322;49.488;8.480;2022-09-09T04:16:11;17.90;99.90
41630;DHT22;27322;49.488;8.480;2022-09-09T04:18:38;17.90;99.90
41630;DHT22;27322;49.488;8.480;2022-09-09T04:21:05;17.90;99.90
41630;DHT22;27322;49.488;8.480;2022-09-09T04:23:32;17.90;99.90
41630;DHT22;27322;49.488;8.480;2022-09-09T04:26:00;17.90;99.90
41630;DHT22;27322;49.488;8.480;2022-09-09T04:28:31;17.90;99.90
41630;DHT22;27322;49.488;8.480;2022-09-09T04:30:56;17.80;99.90
41630;DHT22;27322;49.488;8.480;2022-09-09T04:33:25;17.90;99.90
41630;DHT22;27322;49.488;8.480;2022-09-09T04:35:52;17.90;99.90
41630;DHT22;27322;49.488;8.480;2022-09-09T04:38:19;17.90;99.90
41630;DHT22;27322;49.488;8.480;2022-09-09T04:40:49;17.90;99.90
41630;DHT22;27322;49.488;8.480;2022-09-09T04:43:17;17.90;99.90
41630;DHT22;27322;49.488;8.480;2022-09-09T04:45:46;17.90;99.90
41630;DHT22;27322;49.488;8.480;2022-09-09T04:48:12;17.90;99.90
41630;DHT22;27322;49.488;8.480;2022-09-09T04:50:37;17.80;99.90
41630;DHT22;27322;49.488;8.480;2022-09-09T04:53:04;17.90;99.90
41630;DHT22;27322;49.488;8.480;2022-09-09T04:55:30;17.90;99.90
41630;DHT22;27322;49.488;8.480;2022-09-09T04:57:56;17.90;99.90
41630;DHT22;27322;49.488;8.480;2022-09-09T05:00:23;18.00;99.90
41630;DHT22;27322;49.488;8.480;2022-09-09T05:02:49;17.90;99.90
41630;DHT22;27322;49.488;8.480;2022-09-09T05:05:14;17.90;99.90
41630;DHT22;27322;49.488;8.480;2022-09-09T05:07:40;17.90;99.90
41630;DHT22;27322;49.488;8.480;2022-09-09T05:10:07;17.90;99.90
41630;DHT22;27322;49.488;8.480;2022-09-09T05:12:33;17.90;99.90
41630;DHT22;27322;49.488;8.480;2022-09-09T05:14:58;17.90;99.90
41630;DHT22;27322;49.488;8.480;2022-09-09T05:17:24;17.90;99.90
41630;DHT22;27322;49.488;8.480;2022-09-09T05:19:49;17.90;99.90
41630;DHT22;27322;49.488;8.480;2022-09-09T05:22:19;17.90;99.90
41630;DHT22;27322;49.488;8.480;2022-09-09T05:24:46;18.00;99.90
41630;DHT22;27322;49.488;8.480;2022-09-09T05:27:11;17.90;99.90
41630;DHT22;27322;49.488;8.480;2022-09-09T05:29:38;17.90;99.90
41630;DHT22;27322;49.488;8.480;2022-09-09T05:32:04;17.90;99.90
41630;DHT22;27322;49.488;8.480;2022-09-09T05:34:29;17.90;99.90
41630;DHT22;27322;49.488;8.480;2022-09-09T05:36:55;17.90;99.90
41630;DHT22;27322;49.488;8.480;2022-09-09T05:39:21;18.00;99.90
41630;DHT22;27322;49.488;8.480;2022-09-09T05:41:46;18.00;99.90
41630;DHT22;27322;49.488;8.480;2022-09-09T05:44:12;18.00;99.90
41630;DHT22;27322;49.488;8.480;2022-09-09T05:46:39;18.00;99.90
41630;DHT22;27322;49.488;8.480;2022-09-09T05:49:05;18.00;99.90
41630;DHT22;27322;49.488;8.480;2022-09-09T05:51:31;18.00;99.90
41630;DHT22;27322;49.488;8.480;2022-09-09T05:53:57;18.00;99.90
41630;DHT22;27322;49.488;8.480;2022-09-09T05:56:27;18.00;99.90
41630;DHT22;27322;49.488;8.480;2022-09-09T05:58:54;18.00;99.90
41630;DHT22;27322;49.488;8.480;2022-09-09T06:01:27;17.90;99.90
41630;DHT22;27322;49.488;8.480;2022-09-09T06:03:54;17.90;99.90
41630;DHT22;27322;49.488;8.480;2022-09-09T06:06:22;17.90;99.90
41630;DHT22;27322;49.488;8.480;2022-09-09T06:08:51;17.90;99.90
41630;DHT22;27322;49.488;8.480;2022-09-09T06:11:18;17.90;99.90
41630;DHT22;27322;49.488;8.480;2022-09-09T06:13:44;17.90;99.90
41630;DHT22;27322;49.488;8.480;2022-09-09T06:16:11;17.90;99.90
41630;DHT22;27322;49.488;8.480;2022-09-09T06:18:38;17.90;99.90
41630;DHT22;27322;49.488;8.480;2022-09-09T06:21:06;17.90;99.90
41630;DHT22;27322;49.488;8.480;2022-09-09T06:23:33;17.90;99.90
41630;DHT22;27322;49.488;8.480;2022-09-09T06:26:07;17.90;99.90
41630;DHT22;27322;49.488;8.480;2022-09-09T06:28:35;17.90;99.90
41630;DHT22;27322;49.488;8.480;2022-09-09T06:31:03;17.90;99.90
41630;DHT22;27322;49.488;8.480;2022-09-09T06:33:34;18.00;99.90
41630;DHT22;27322;49.488;8.480;2022-09-09T06:36:01;18.00;99.90
41630;DHT22;27322;49.488;8.480;2022-09-09T06:38:27;18.00;99.90
41630;DHT22;27322;49.488;8.480;2022-09-09T06:40:58;18.00;99.90
41630;DHT22;27322;49.488;8.480;2022-09-09T06:43:25;18.00;99.90
41630;DHT22;27322;49.488;8.480;2022-09-09T06:46:01;18.10;99.90
41630;DHT22;27322;49.488;8.480;2022-09-09T06:48:28;18.00;99.90
41630;DHT22;27322;49.488;8.480;2022-09-09T06:53:34;18.10;99.90
41630;DHT22;27322;49.488;8.480;2022-09-09T06:56:01;18.20;99.90
41630;DHT22;27322;49.488;8.480;2022-09-09T06:58:27;18.20;99.90
41630;DHT22;27322;49.488;8.480;2022-09-09T07:01:02;18.30;99.90
41630;DHT22;27322;49.488;8.480;2022-09-09T07:03:28;18.40;99.90
41630;DHT22;27322;49.488;8.480;2022-09-09T07:05:54;18.40;99.90
41630;DHT22;27322;49.488;8.480;2022-09-09T07:08:21;18.40;99.90
41630;DHT22;27322;49.488;8.480;2022-09-09T07:10:47;18.40;99.90
41630;DHT22;27322;49.488;8.480;2022-09-09T07:13:13;18.50;99.90
41630;DHT22;27322;49.488;8.480;2022-09-09T07:15:41;18.50;99.90
41630;DHT22;27322;49.488;8.480;2022-09-09T07:18:07;18.60;99.90
41630;DHT22;27322;49.488;8.480;2022-09-09T07:20:32;18.60;99.90
41630;DHT22;27322;49.488;8.480;2022-09-09T07:22:58;18.70;99.90
41630;DHT22;27322;49.488;8.480;2022-09-09T07:25:24;18.80;99.90
41630;DHT22;27322;49.488;8.480;2022-09-09T07:27:53;18.90;99.90
41630;DHT22;27322;49.488;8.480;2022-09-09T07:30:20;19.00;99.90
41630;DHT22;27322;49.488;8.480;2022-09-09T07:32:46;19.10;99.90
41630;DHT22;27322;49.488;8.480;2022-09-09T07:35:11;19.10;99.90
41630;DHT22;27322;49.488;8.480;2022-09-09T07:37:37;19.10;99.90
41630;DHT22;27322;49.488;8.480;2022-09-09T07:40:03;19.10;99.90
41630;DHT22;27322;49.488;8.480;2022-09-09T07:42:30;19.10;99.90
41630;DHT22;27322;49.488;8.480;2022-09-09T07:44:56;19.10;99.90
41630;DHT22;27322;49.488;8.480;2022-09-09T07:47:21;19.10;99.90
41630;DHT22;27322;49.488;8.480;2022-09-09T07:49:50;19.20;99.90
41630;DHT22;27322;49.488;8.480;2022-09-09T07:52:15;19.20;99.90
41630;DHT22;27322;49.488;8.480;2022-09-09T07:54:42;19.30;99.90
41630;DHT22;27322;49.488;8.480;2022-09-09T07:57:07;19.40;99.90
41630;DHT22;27322;49.488;8.480;2022-09-09T07:59:33;19.40;99.90
41630;DHT22;27322;49.488;8.480;2022-09-09T08:01:59;19.50;99.90
41630;DHT22;27322;49.488;8.480;2022-09-09T08:04:25;19.60;99.90
41630;DHT22;27322;49.488;8.480;2022-09-09T08:06:59;19.60;99.90
41630;DHT22;27322;49.488;8.480;2022-09-09T08:09:26;19.70;99.90
41630;DHT22;27322;49.488;8.480;2022-09-09T08:11:54;19.70;99.90
41630;DHT22;27322;49.488;8.480;2022-09-09T08:14:22;19.70;99.90
41630;DHT22;27322;49.488;8.480;2022-09-09T08:16:49;19.70;99.90
41630;DHT22;27322;49.488;8.480;2022-09-09T08:19:15;19.60;99.90
41630;DHT22;27322;49.488;8.480;2022-09-09T08:21:42;19.50;99.90
41630;DHT22;27322;49.488;8.480;2022-09-09T08:24:10;19.50;99.90
41630;DHT22;27322;49.488;8.480;2022-09-09T08:26:38;19.20;99.90
41630;DHT22;27322;49.488;8.480;2022-09-09T08:29:05;19.00;99.90
41630;DHT22;27322;49.488;8.480;2022-09-09T08:31:33;18.90;99.90
41630;DHT22;27322;49.488;8.480;2022-09-09T08:34:00;18.80;99.90
41630;DHT22;27322;49.488;8.480;2022-09-09T08:36:28;18.70;99.90
41630;DHT22;27322;49.488;8.480;2022-09-09T08:38:57;18.70;99.90
41630;DHT22;27322;49.488;8.480;2022-09-09T08:44:13;18.80;99.90
41630;DHT22;27322;49.488;8.480;2022-09-09T08:52:44;19.10;99.90
41630;DHT22;27322;49.488;8.480;2022-09-09T08:57:56;19.20;99.90
41630;DHT22;27322;49.488;8.480;2022-09-09T09:00:22;19.30;99.90
41630;DHT22;27322;49.488;8.480;2022-09-09T09:03:13;19.40;99.90
41630;DHT22;27322;49.488;8.480;2022-09-09T09:06:08;19.40;99.90
41630;DHT22;27322;49.488;8.480;2022-09-09T09:08:46;19.50;99.90
41630;DHT22;27322;49.488;8.480;2022-09-09T09:11:14;19.50;99.90
41630;DHT22;27322;49.488;8.480;2022-09-09T09:14:01;19.70;99.90
41630;DHT22;27322;49.488;8.480;2022-09-09T09:19:40;20.60;99.90
41630;DHT22;27322;49.488;8.480;2022-09-09T09:28:18;21.20;99.90
41630;DHT22;27322;49.488;8.480;2022-09-09T09:30:54;21.10;99.90
41630;DHT22;27322;49.488;8.480;2022-09-09T09:33:27;21.00;99.90
41630;DHT22;27322;49.488;8.480;2022-09-09T09:35:53;20.90;99.90
41630;DHT22;27322;49.488;8.480;2022-09-09T09:38:23;20.90;99.90
41630;DHT22;27322;49.488;8.480;2022-09-09T09:40:54;20.80;99.90
41630;DHT22;27322;49.488;8.480;2022-09-09T09:43:33;20.80;99.90
41630;DHT22;27322;49.488;8.480;2022-09-09T09:45:59;20.70;99.90
41630;DHT22;27322;49.488;8.480;2022-09-09T09:48:27;20.70;99.90
41630;DHT22;27322;49.488;8.480;2022-09-09T09:50:59;20.60;99.90
41630;DHT22;27322;49.488;8.480;2022-09-09T09:53:33;20.50;99.90
41630;DHT22;27322;49.488;8.480;2022-09-09T09:56:13;20.40;99.90
41630;DHT22;27322;49.488;8.480;2022-09-09T10:01:22;20.10;99.90
41630;DHT22;27322;49.488;8.480;2022-09-09T10:03:55;19.90;99.90
41630;DHT22;27322;49.488;8.480;2022-09-09T10:06:32;19.30;99.90
41630;DHT22;27322;49.488;8.480;2022-09-09T10:08:59;18.90;99.90
41630;DHT22;27322;49.488;8.480;2022-09-09T10:19:33;18.30;99.90
41630;DHT22;27322;49.488;8.480;2022-09-09T10:25:09;18.60;99.90
41630;DHT22;27322;49.488;8.480;2022-09-09T10:30:21;18.70;99.90
41630;DHT22;27322;49.488;8.480;2022-09-09T10:38:17;19.00;99.90
41630;DHT22;27322;49.488;8.480;2022-09-09T10:40:59;19.20;99.90
41630;DHT22;27322;49.488;8.480;2022-09-09T10:57:11;20.30;99.90
41630;DHT22;27322;49.488;8.480;2022-09-09T10:59:47;20.30;99.90
41630;DHT22;27322;49.488;8.480;2022-09-09T11:07:28;20.40;99.90
41630;DHT22;27322;49.488;8.480;2022-09-09T11:10:01;20.50;99.90
41630;DHT22;27322;49.488;8.480;2022-09-09T11:12:30;20.60;99.90
41630;DHT22;27322;49.488;8.480;2022-09-09T11:15:04;20.60;99.90
41630;DHT22;27322;49.488;8.480;2022-09-09T11:17:45;20.70;99.90
41630;DHT22;27322;49.488;8.480;2022-09-09T11:20:13;20.80;99.90
41630;DHT22;27322;49.488;8.480;2022-09-09T11:22:44;21.00;99.90
41630;DHT22;27322;49.488;8.480;2022-09-09T11:25:18;21.30;99.90
41630;DHT22;27322;49.488;8.480;2022-09-09T11:41:42;22.10;99.90
41630;DHT22;27322;49.488;8.480;2022-09-09T11:44:13;22.00;99.90
41630;DHT22;27322;49.488;8.480;2022-09-09T11:46:42;21.90;99.90
41630;DHT22;27322;49.488;8.480;2022-09-09T11:49:41;21.80;99.50
41630;DHT22;27322;49.488;8.480;2022-09-09T11:52:24;21.70;99.40
41630;DHT22;27322;49.488;8.480;2022-09-09T11:54:51;21.70;99.70
41630;DHT22;27322;49.488;8.480;2022-09-09T11:57:35;21.60;99.70
41630;DHT22;27322;49.488;8.480;2022-09-09T12:00:01;21.60;99.60
41630;DHT22;27322;49.488;8.480;2022-09-09T12:02:30;21.70;99.00
41630;DHT22;27322;49.488;8.480;2022-09-09T12:15:49;21.70;98.40
41630;DHT22;27322;49.488;8.480;2022-09-09T12:18:37;21.60;98.20
41630;DHT22;27322;49.488;8.480;2022-09-09T12:21:21;21.50;98.40
41630;DHT22;27322;49.488;8.480;2022-09-09T12:23:59;21.20;96.30
41630;DHT22;27322;49.488;8.480;2022-09-09T12:29:12;19.30;99.90
41630;DHT22;27322;49.488;8.480;2022-09-09T12:32:22;18.80;99.90
41630;DHT22;27322;49.488;8.480;2022-09-09T12:37:37;17.90;99.90
41630;DHT22;27322;49.488;8.480;2022-09-09T12:40:18;17.60;99.90
41630;DHT22;27322;49.488;8.480;2022-09-09T12:42:44;17.50;99.90
41630;DHT22;27322;49.488;8.480;2022-09-09T12:45:21;17.40;99.90
41630;DHT22;27322;49.488;8.480;2022-09-09T12:47:51;17.40;99.90
41630;DHT22;27322;49.488;8.480;2022-09-09T12:50:30;17.40;99.90
41630;DHT22;27322;49.488;8.480;2022-09-09T12:53:02;17.50;99.90
41630;DHT22;27322;49.488;8.480;2022-09-09T12:55:31;17.60;99.90
41630;DHT22;27322;49.488;8.480;2022-09-09T12:57:59;17.70;99.90
41630;DHT22;27322;49.488;8.480;2022-09-09T13:00:26;17.90;99.90
41630;DHT22;27322;49.488;8.480;2022-09-09T13:02:57;17.90;99.90
41630;DHT22;27322;49.488;8.480;2022-09-09T13:05:37;17.90;99.90
41630;DHT22;27322;49.488;8.480;2022-09-09T13:08:09;17.80;99.90
41630;DHT22;27322;49.488;8.480;2022-09-09T13:10:59;17.80;99.90
41630;DHT22;27322;49.488;8.480;2022-09-09T13:13:32;17.70;99.90
41630;DHT22;27322;49.488;8.480;2022-09-09T13:16:00;17.60;99.90
41630;DHT22;27322;49.488;8.480;2022-09-09T13:18:34;17.50;99.90
41630;DHT22;27322;49.488;8.480;2022-09-09T13:21:00;17.40;99.90
41630;DHT22;27322;49.488;8.480;2022-09-09T13:23:34;17.30;99.90
41630;DHT22;27322;49.488;8.480;2022-09-09T13:26:04;17.20;99.90
41630;DHT22;27322;49.488;8.480;2022-09-09T13:28:31;17.20;99.90
41630;DHT22;27322;49.488;8.480;2022-09-09T13:31:18;17.10;99.90
41630;DHT22;27322;49.488;8.480;2022-09-09T13:33:44;17.00;99.90
41630;DHT22;27322;49.488;8.480;2022-09-09T13:36:11;17.00;99.90
41630;DHT22;27322;49.488;8.480;2022-09-09T13:38:56;17.00;99.90
41630;DHT22;27322;49.488;8.480;2022-09-09T13:41:24;17.00;99.90
41630;DHT22;27322;49.488;8.480;2022-09-09T13:43:51;17.00;99.90
41630;DHT22;27322;49.488;8.480;2022-09-09T13:51:49;17.70;99.90
41630;DHT22;27322;49.488;8.480;2022-09-09T13:54:20;18.00;99.90
41630;DHT22;27322;49.488;8.480;2022-09-09T13:56:46;18.30;99.90
41630;DHT22;27322;49.488;8.480;2022-09-09T13:59:15;18.50;99.90
41630;DHT22;27322;49.488;8.480;2022-09-09T14:01:40;18.70;99.90
41630;DHT22;27322;49.488;8.480;2022-09-09T14:04:07;18.80;99.90
41630;DHT22;27322;49.488;8.480;2022-09-09T14:06:34;19.10;99.90
41630;DHT22;27322;49.488;8.480;2022-09-09T14:09:02;19.40;99.90
41630;DHT22;27322;49.488;8.480;2022-09-09T14:11:28;20.40;99.90
41630;DHT22;27322;49.488;8.480;2022-09-09T14:13:54;21.40;99.90
41630;DHT22;27322;49.488;8.480;2022-09-09T14:16:19;22.40;99.90
41630;DHT22;27322;49.488;8.480;2022-09-09T14:18:47;23.40;99.90
41630;DHT22;27322;49.488;8.480;2022-09-09T14:21:13;24.50;99.90
41630;DHT22;27322;49.488;8.480;2022-09-09T14:23:40;25.10;99.80
41630;DHT22;27322;49.488;8.480;2022-09-09T14:26:06;25.40;97.40
41630;DHT22;27322;49.488;8.480;2022-09-09T14:28:32;25.50;98.00
41630;DHT22;27322;49.488;8.480;2022-09-09T14:31:03;25.40;98.70
41630;DHT22;27322;49.488;8.480;2022-09-09T14:33:29;25.60;97.90
41630;DHT22;27322;49.488;8.480;2022-09-09T14:35:59;25.60;97.00
41630;DHT22;27322;49.488;8.480;2022-09-09T14:38:29;25.30;98.10
41630;DHT22;27322;49.488;8.480;2022-09-09T14:40:55;24.80;98.10
41630;DHT22;27322;49.488;8.480;2022-09-09T14:43:21;24.00;99.90
41630;DHT22;27322;49.488;8.480;2022-09-09T14:45:47;23.20;99.90
41630;DHT22;27322;49.488;8.480;2022-09-09T14:48:19;22.50;99.90
41630;DHT22;27322;49.488;8.480;2022-09-09T14:50:44;21.70;99.90
41630;DHT22;27322;49.488;8.480;2022-09-09T14:53:10;21.10;99.90
41630;DHT22;27322;49.488;8.480;2022-09-09T14:55:36;20.50;99.90
41630;DHT22;27322;49.488;8.480;2022-09-09T14:58:03;20.20;99.90
41630;DHT22;27322;49.488;8.480;2022-09-09T15:00:28;19.80;99.90
41630;DHT22;27322;49.488;8.480;2022-09-09T15:02:55;19.50;99.90
41630;DHT22;27322;49.488;8.480;2022-09-09T15:05:21;19.30;99.90
41630;DHT22;27322;49.488;8.480;2022-09-09T15:07:47;19.10;99.90
41630;DHT22;27322;49.488;8.480;2022-09-09T15:10:16;19.10;99.90
41630;DHT22;27322;49.488;8.480;2022-09-09T15:12:43;19.00;99.90
41630;DHT22;27322;49.488;8.480;2022-09-09T15:15:09;19.00;99.90
41630;DHT22;27322;49.488;8.480;2022-09-09T15:17:35;18.90;99.90
41630;DHT22;27322;49.488;8.480;2022-09-09T15:20:03;18.50;99.90
41630;DHT22;27322;49.488;8.480;2022-09-09T15:22:31;18.20;99.90
41630;DHT22;27322;49.488;8.480;2022-09-09T15:24:57;17.90;99.90
41630;DHT22;27322;49.488;8.480;2022-09-09T15:27:22;17.60;99.90
41630;DHT22;27322;49.488;8.480;2022-09-09T15:29:49;17.40;99.90
41630;DHT22;27322;49.488;8.480;2022-09-09T15:32:17;17.20;99.90
41630;DHT22;27322;49.488;8.480;2022-09-09T15:34:43;17.00;99.90
41630;DHT22;27322;49.488;8.480;2022-09-09T15:37:12;16.90;99.90
41630;DHT22;27322;49.488;8.480;2022-09-09T15:39:40;16.80;99.90
41630;DHT22;27322;49.488;8.480;2022-09-09T15:42:09;16.80;99.90
41630;DHT22;27322;49.488;8.480;2022-09-09T15:44:40;16.70;99.90
41630;DHT22;27322;49.488;8.480;2022-09-09T15:47:10;16.70;99.90
41630;DHT22;27322;49.488;8.480;2022-09-09T15:49:35;16.60;99.90
41630;DHT22;27322;49.488;8.480;2022-09-09T15:52:01;16.60;99.90
41630;DHT22;27322;49.488;8.480;2022-09-09T15:54:32;16.60;99.90
41630;DHT22;27322;49.488;8.480;2022-09-09T15:57:00;16.60;99.90
41630;DHT22;27322;49.488;8.480;2022-09-09T15:59:28;16.70;99.90
41630;DHT22;27322;49.488;8.480;2022-09-09T16:01:53;16.80;99.90
41630;DHT22;27322;49.488;8.480;2022-09-09T16:04:21;16.90;99.90
41630;DHT22;27322;49.488;8.480;2022-09-09T16:06:51;17.10;99.90
41630;DHT22;27322;49.488;8.480;2022-09-09T16:09:18;17.20;99.90
41630;DHT22;27322;49.488;8.480;2022-09-09T16:11:44;17.40;99.90
41630;DHT22;27322;49.488;8.480;2022-09-09T16:14:10;17.50;99.90
41630;DHT22;27322;49.488;8.480;2022-09-09T16:16:36;17.50;99.90
41630;DHT22;27322;49.488;8.480;2022-09-09T16:19:08;17.50;99.90
41630;DHT22;27322;49.488;8.480;2022-09-09T16:21:53;17.60;99.90
41630;DHT22;27322;49.488;8.480;2022-09-09T16:24:19;17.60;99.90
41630;DHT22;27322;49.488;8.480;2022-09-09T16:26:50;17.50;99.90
41630;DHT22;27322;49.488;8.480;2022-09-09T16:29:18;17.50;99.90
41630;DHT22;27322;49.488;8.480;2022-09-09T16:31:45;17.50;99.90
41630;DHT22;27322;49.488;8.480;2022-09-09T16:34:11;17.40;99.90
41630;DHT22;27322;49.488;8.480;2022-09-09T16:36:38;17.40;99.90
41630;DHT22;27322;49.488;8.480;2022-09-09T16:39:09;17.40;99.90
41630;DHT22;27322;49.488;8.480;2022-09-09T16:41:35;17.30;99.90
41630;DHT22;27322;49.488;8.480;2022-09-09T16:44:07;17.20;99.90
41630;DHT22;27322;49.488;8.480;2022-09-09T16:46:35;17.20;99.90
41630;DHT22;27322;49.488;8.480;2022-09-09T16:49:04;17.20;99.90
41630;DHT22;27322;49.488;8.480;2022-09-09T16:51:33;17.20;99.90
41630;DHT22;27322;49.488;8.480;2022-09-09T16:54:00;17.10;99.90
41630;DHT22;27322;49.488;8.480;2022-09-09T16:56:28;17.10;99.90
41630;DHT22;27322;49.488;8.480;2022-09-09T16:59:00;17.10;99.90
41630;DHT22;27322;49.488;8.480;2022-09-09T17:01:28;17.10;99.90
41630;DHT22;27322;49.488;8.480;2022-09-09T17:03:55;17.10;99.90
41630;DHT22;27322;49.488;8.480;2022-09-09T17:06:21;17.10;99.90
41630;DHT22;27322;49.488;8.480;2022-09-09T17:08:47;17.20;99.90
41630;DHT22;27322;49.488;8.480;2022-09-09T17:11:18;17.20;99.90
41630;DHT22;27322;49.488;8.480;2022-09-09T17:13:47;17.20;99.90
41630;DHT22;27322;49.488;8.480;2022-09-09T17:16:15;17.20;99.90
41630;DHT22;27322;49.488;8.480;2022-09-09T17:18:42;17.30;99.90
41630;DHT22;27322;49.488;8.480;2022-09-09T17:21:10;17.30;99.90
41630;DHT22;27322;49.488;8.480;2022-09-09T17:23:38;17.30;99.90
41630;DHT22;27322;49.488;8.480;2022-09-09T17:26:09;17.20;99.90
41630;DHT22;27322;49.488;8.480;2022-09-09T17:28:36;17.20;99.90
41630;DHT22;27322;49.488;8.480;2022-09-09T17:31:04;17.20;99.90
41630;DHT22;27322;49.488;8.480;2022-09-09T17:33:33;17.10;99.90
41630;DHT22;27322;49.488;8.480;2022-09-09T17:36:00;17.10;99.90
41630;DHT22;27322;49.488;8.480;2022-09-09T17:38:27;17.00;99.90
41630;DHT22;27322;49.488;8.480;2022-09-09T17:41:07;17.00;99.90
41630;DHT22;27322;49.488;8.480;2022-09-09T17:43:34;17.00;99.90
41630;DHT22;27322;49.488;8.480;2022-09-09T17:46:24;16.90;99.90
41630;DHT22;27322;49.488;8.480;2022-09-09T17:48:54;16.90;99.90
41630;DHT22;27322;49.488;8.480;2022-09-09T17:51:21;16.90;99.90
41630;DHT22;27322;49.488;8.480;2022-09-09T17:53:51;16.90;99.90
41630;DHT22;27322;49.488;8.480;2022-09-09T17:56:19;16.90;99.90
41630;DHT22;27322;49.488;8.480;2022-09-09T17:58:49;16.90;99.90
41630;DHT22;27322;49.488;8.480;2022-09-09T18:01:26;16.90;99.90
41630;DHT22;27322;49.488;8.480;2022-09-09T18:03:54;16.90;99.90
41630;DHT22;27322;49.488;8.480;2022-09-09T18:06:23;16.80;99.90
41630;DHT22;27322;49.488;8.480;2022-09-09T18:08:55;16.80;99.90
41630;DHT22;27322;49.488;8.480;2022-09-09T18:11:23;16.70;99.90
41630;DHT22;27322;49.488;8.480;2022-09-09T18:13:53;16.60;99.90
41630;DHT22;27322;49.488;8.480;2022-09-09T18:16:19;16.50;99.90
41630;DHT22;27322;49.488;8.480;2022-09-09T18:18:45;16.30;99.90
41630;DHT22;27322;49.488;8.480;2022-09-09T18:21:12;16.20;99.90